Marshall, Minnesota
Current Conditions -  °F | °C
As of 6:15 AM on Tuesday 27 Jan 2015 (Local Time) from KMML Reporting Station
Overcast Overcast  
Wind Chill: 28°   Ceiling: 200
Heat Index: 28°   Visibility: 0.5mi
Dew Point: 27°   Wind: 0mph
Humidity: 93%   Direction: NA
Pressure: 30.09"   Gusts: NA
Location:  44.45°N, 95.79°W
Report Text: KMML 271215Z AUTO 00000KT 1/2SM OVC002 M02/M03 A3009 RMK AO1
Loading
Personal Weather Stations






























Interactive Weather Map New forecast layout! Learn more

10-Day Weather Forecast

Advertisements
Track Severe Weather on mobile